Time;durP1;ratioP1;P1;durP2;ratioP2;P2;SDS_P1;SDS_P2;PMS_P1;PMS_P2;Temp;Humidity;BMP_temperature;BMP_pressure;BME280_temperature;BME280_humidity;BME280_pressure;Samples;Min_cycle;Max_cycle;Signal;HPM_P1;HPM_P2
2023/06/03 00:00:26;;;;;;;2.08;1.30;;;;;;;26.34;34.86;102022.91;5018183;28;97932;-81
2023/06/03 00:02:53;;;;;;;2.85;1.45;;;;;;;26.34;34.38;102020.16;5015240;28;96833;-81
2023/06/03 00:05:21;;;;;;;2.85;1.30;;;;;;;26.34;34.92;102027.56;5016426;28;96870;-81
2023/06/03 00:07:48;;;;;;;2.88;1.45;;;;;;;26.34;34.74;102024.81;5007180;28;96981;-82
2023/06/03 00:10:15;;;;;;;1.58;1.20;;;;;;;26.34;34.86;102025.66;5013042;28;97684;-81
2023/06/03 00:12:45;;;;;;;1.88;1.13;;;;;;;26.32;34.83;102024.94;5017244;28;96944;-81
2023/06/03 00:15:12;;;;;;;1.95;1.27;;;;;;;26.32;34.79;102024.94;5014960;28;96850;-81
2023/06/03 00:17:39;;;;;;;1.52;1.00;;;;;;;26.32;34.73;102026.84;5014848;28;98163;-81
2023/06/03 00:20:06;;;;;;;1.95;1.30;;;;;;;26.30;35.03;102027.03;5014317;28;96880;-81
2023/06/03 00:22:35;;;;;;;1.60;1.02;;;;;;;26.31;34.78;102027.88;5014345;28;96933;-82
2023/06/03 00:25:02;;;;;;;2.45;1.20;;;;;;;26.31;34.83;102028.75;4998449;28;96947;-82
2023/06/03 00:27:28;;;;;;;1.55;1.10;;;;;;;26.31;34.75;102028.75;5013311;28;97778;-81
2023/06/03 00:29:55;;;;;;;2.80;1.27;;;;;;;26.31;34.98;102027.88;5004226;28;99111;-81
2023/06/03 00:32:22;;;;;;;3.08;1.30;;;;;;;26.31;34.87;102033.41;4983827;28;96738;-81
2023/06/03 00:34:48;;;;;;;2.47;1.30;;;;;;;26.30;34.85;102029.78;5015427;28;97052;-81
2023/06/03 00:37:15;;;;;;;1.70;1.20;;;;;;;26.29;34.98;102022.56;5012987;28;98746;-81
2023/06/03 00:39:41;;;;;;;2.90;1.42;;;;;;;26.30;34.62;102029.78;5016287;28;96835;-81
2023/06/03 00:42:08;;;;;;;1.75;1.13;;;;;;;26.29;34.87;102022.56;5001402;28;96865;-81
2023/06/03 00:44:34;;;;;;;1.60;1.20;;;;;;;26.29;34.81;102023.41;5015530;28;96986;-81
2023/06/03 00:47:02;;;;;;;2.03;1.10;;;;;;;26.29;34.96;102028.94;4998890;28;97889;-81
2023/06/03 00:49:30;;;;;;;1.88;1.25;;;;;;;26.29;34.97;102025.31;5000086;28;99862;-81
2023/06/03 00:51:58;;;;;;;2.05;1.27;;;;;;;26.28;34.80;102029.97;5013011;28;96987;-82
2023/06/03 00:54:25;;;;;;;1.52;1.10;;;;;;;26.28;34.71;102029.97;5012221;28;97199;-81
2023/06/03 00:56:52;;;;;;;2.13;1.30;;;;;;;26.28;35.02;102026.38;5011502;28;97565;-81
2023/06/03 00:59:20;;;;;;;2.03;1.13;;;;;;;26.27;34.75;102025.50;4998616;28;96798;-81
2023/06/03 01:01:46;;;;;;;1.48;1.08;;;;;;;26.27;34.83;102028.25;5012699;28;97230;-81
2023/06/03 01:04:17;;;;;;;1.60;1.15;;;;;;;26.27;34.79;102027.41;5014094;28;97053;-81
2023/06/03 01:07:05;;;;;;;1.50;1.00;;;;;;;26.28;35.16;102026.38;5012182;28;97166;-81
2023/06/03 01:09:47;;;;;;;1.58;1.10;;;;;;;26.26;34.95;102022.94;5023131;28;96864;-81
2023/06/03 01:12:38;;;;;;;1.42;1.17;;;;;;;26.25;35.06;102023.97;5002615;28;97014;-81
2023/06/03 01:15:13;;;;;;;2.55;1.52;;;;;;;26.25;34.93;102032.25;5000947;28;96839;-81
2023/06/03 01:17:47;;;;;;;2.67;1.10;;;;;;;26.23;35.01;102032.41;4981901;28;101184;-82
2023/06/03 01:20:16;;;;;;;1.45;1.02;;;;;;;26.22;34.92;102019.69;5018629;28;97248;-81
2023/06/03 01:22:44;;;;;;;1.80;1.27;;;;;;;26.23;35.05;102020.53;4986138;28;96945;-81
2023/06/03 01:25:15;;;;;;;1.85;1.50;;;;;;;26.23;34.96;102028.81;5016090;28;96933;-81
2023/06/03 01:27:45;;;;;;;2.47;1.10;;;;;;;26.24;34.86;102036.03;5014975;28;99283;-81
2023/06/03 01:30:16;;;;;;;2.67;1.25;;;;;;;26.23;34.94;102029.66;5003383;28;98439;-81
2023/06/03 01:32:44;;;;;;;1.33;1.02;;;;;;;26.23;34.78;102028.81;5013832;28;96887;-81
2023/06/03 01:35:13;;;;;;;1.58;1.30;;;;;;;26.22;35.06;102038.97;5015068;28;96957;-81
2023/06/03 01:37:40;;;;;;;1.50;1.08;;;;;;;26.22;34.89;102038.09;5015654;28;99356;-82
2023/06/03 01:40:09;;;;;;;1.60;0.93;;;;;;;26.22;34.88;102033.47;4999248;28;96999;-81
2023/06/03 01:42:37;;;;;;;1.65;1.23;;;;;;;26.22;34.82;102030.69;4991067;28;97001;-81
2023/06/03 01:45:05;;;;;;;1.73;1.10;;;;;;;26.21;34.96;102037.25;5009019;28;97031;-81
2023/06/03 01:47:32;;;;;;;1.75;1.20;;;;;;;26.22;34.92;102033.47;5006378;28;101383;-81
2023/06/03 01:49:58;;;;;;;2.38;1.20;;;;;;;26.21;35.01;102031.75;5007793;28;97461;-81
2023/06/03 01:52:27;;;;;;;1.90;1.00;;;;;;;26.21;34.87;102028.13;4991346;28;96842;-81
2023/06/03 01:54:54;;;;;;;2.17;1.35;;;;;;;26.20;35.15;102030.03;5010084;28;97030;-81
2023/06/03 01:57:21;;;;;;;1.55;1.05;;;;;;;26.20;34.91;102031.94;5008233;28;99279;-81
2023/06/03 01:59:48;;;;;;;2.17;1.35;;;;;;;26.20;34.99;102034.69;5008760;28;100453;-81
2023/06/03 02:02:14;;;;;;;1.92;1.10;;;;;;;26.19;34.83;102028.31;4992507;28;97014;-81
2023/06/03 02:04:44;;;;;;;1.60;1.20;;;;;;;26.20;34.84;102023.66;5007781;28;97117;-81
2023/06/03 02:07:11;;;;;;;1.30;1.20;;;;;;;26.20;35.13;102027.28;5007379;28;99167;-81
2023/06/03 02:09:38;;;;;;;1.98;1.20;;;;;;;26.20;34.99;102029.19;5008453;28;100123;-81
2023/06/03 02:12:07;;;;;;;1.38;1.08;;;;;;;26.20;34.93;102023.66;4995447;28;96839;-81
2023/06/03 02:14:33;;;;;;;2.08;1.58;;;;;;;26.18;35.21;102026.59;5014065;28;97326;-81
2023/06/03 02:17:00;;;;;;;1.75;1.25;;;;;;;26.18;34.68;102026.59;5011797;28;99518;-81
2023/06/03 02:19:27;;;;;;;2.00;1.20;;;;;;;26.18;34.89;102026.59;5011129;28;100015;-81
2023/06/03 02:21:57;;;;;;;2.45;1.30;;;;;;;26.18;35.07;102020.25;5013665;28;96708;-81
2023/06/03 02:24:24;;;;;;;1.35;0.90;;;;;;;26.18;34.97;102025.75;5011178;28;97135;-81
2023/06/03 02:26:52;;;;;;;2.03;1.30;;;;;;;26.17;35.09;102019.38;5013913;28;98051;-81
2023/06/03 02:29:22;;;;;;;1.73;1.20;;;;;;;26.17;34.72;102022.13;4997133;28;100490;-81
2023/06/03 02:31:49;;;;;;;1.70;1.40;;;;;;;26.17;35.01;102018.53;4992837;28;96899;-81
2023/06/03 02:34:18;;;;;;;1.55;1.13;;;;;;;26.16;35.13;102023.19;5009031;28;96416;-81
2023/06/03 02:36:46;;;;;;;2.30;1.33;;;;;;;26.17;34.86;102024.03;5011642;28;100936;-81
2023/06/03 02:39:13;;;;;;;1.63;1.20;;;;;;;26.16;34.98;102020.44;5012842;28;98212;-81
2023/06/03 02:41:41;;;;;;;2.08;1.20;;;;;;;26.16;34.69;102019.56;5013403;28;97251;-81
2023/06/03 02:44:11;;;;;;;2.15;1.20;;;;;;;26.16;34.98;102022.31;5014068;28;97539;-81
2023/06/03 02:46:38;;;;;;;2.28;1.25;;;;;;;26.15;34.92;102021.47;5014247;28;99277;-81
2023/06/03 02:49:07;;;;;;;1.90;1.20;;;;;;;26.15;35.03;102021.47;5019431;28;97617;-81
2023/06/03 02:51:36;;;;;;;1.58;1.17;;;;;;;26.14;34.92;102022.50;5002059;28;97497;-81
2023/06/03 02:54:03;;;;;;;1.65;1.10;;;;;;;26.13;35.08;102026.28;5020792;28;96893;-82
2023/06/03 02:56:30;;;;;;;1.33;1.10;;;;;;;26.14;35.04;102021.66;5035278;28;98073;-81
2023/06/03 02:58:57;;;;;;;1.33;1.00;;;;;;;26.15;34.67;102028.88;5005828;28;98596;-81
2023/06/03 03:01:24;;;;;;;1.60;1.00;;;;;;;26.14;34.93;102024.41;5021978;28;97473;-81
2023/06/03 03:03:50;;;;;;;1.67;1.08;;;;;;;26.13;35.22;102031.81;5023738;28;97535;-81
2023/06/03 03:06:20;;;;;;;1.42;1.08;;;;;;;26.14;35.14;102024.41;5009144;28;99446;-81
2023/06/03 03:08:48;;;;;;;1.92;1.30;;;;;;;26.13;34.96;102022.69;5021758;28;96691;-82
2023/06/03 03:11:17;;;;;;;1.58;1.05;;;;;;;26.12;34.82;102032.84;5006861;28;97000;-81
2023/06/03 03:13:45;;;;;;;1.48;1.00;;;;;;;26.13;35.08;102033.69;5018945;28;96896;-82
2023/06/03 03:16:13;;;;;;;1.38;1.05;;;;;;;26.13;34.92;102033.69;5018092;28;99326;-81
2023/06/03 03:18:41;;;;;;;1.60;1.15;;;;;;;26.12;34.88;102032.00;5018658;28;99264;-81
2023/06/03 03:21:10;;;;;;;1.88;1.25;;;;;;;26.12;34.96;102037.50;5020734;28;96816;-82
2023/06/03 03:23:38;;;;;;;1.63;1.30;;;;;;;26.12;35.16;102032.00;5005279;28;97299;-81
2023/06/03 03:26:07;;;;;;;1.55;1.17;;;;;;;26.12;35.09;102032.00;5023490;28;96859;-81
2023/06/03 03:28:35;;;;;;;2.20;1.50;;;;;;;26.12;34.97;102032.00;5021340;28;99697;-81
2023/06/03 03:31:04;;;;;;;1.83;1.20;;;;;;;26.11;34.73;102031.13;5007122;28;96890;-82
2023/06/03 03:33:33;;;;;;;2.05;1.13;;;;;;;26.09;34.92;102029.59;5002482;28;96863;-81
2023/06/03 03:36:08;;;;;;;1.48;1.20;;;;;;;26.11;35.15;102033.03;5015996;28;99756;-82
2023/06/03 03:38:37;;;;;;;1.58;1.30;;;;;;;26.10;34.94;102028.56;5003235;28;99167;-81
2023/06/03 03:41:05;;;;;;;1.80;0.95;;;;;;;26.09;35.03;102033.22;5024930;28;96789;-81
2023/06/03 03:43:34;;;;;;;1.63;1.20;;;;;;;26.10;35.22;102034.06;5024373;28;97106;-81
2023/06/03 03:46:08;;;;;;;1.77;1.10;;;;;;;26.12;34.97;102040.25;5009899;28;96948;-81
2023/06/03 03:48:35;;;;;;;1.73;1.17;;;;;;;26.10;35.03;102042.31;5018569;28;99834;-81
2023/06/03 03:51:03;;;;;;;1.27;1.13;;;;;;;26.11;34.92;102049.53;5020650;28;97268;-81
2023/06/03 03:53:35;;;;;;;1.40;1.20;;;;;;;26.09;35.16;102044.22;5002274;28;97307;-81
2023/06/03 03:56:20;;;;;;;1.35;1.10;;;;;;;26.09;35.18;102035.97;5032358;28;96956;-81
2023/06/03 03:58:53;;;;;;;1.48;1.10;;;;;;;26.08;35.19;102047.16;4997058;28;99871;-81
2023/06/03 04:01:24;;;;;;;1.55;1.02;;;;;;;26.08;35.03;102056.28;5002927;28;96952;-81
2023/06/03 04:03:58;;;;;;;1.75;1.27;;;;;;;26.08;34.95;102049.91;5004083;28;97408;-82
2023/06/03 04:06:39;;;;;;;1.80;1.08;;;;;;;26.07;34.99;102054.56;5017707;28;100511;-81
2023/06/03 04:09:10;;;;;;;1.58;1.00;;;;;;;26.06;35.05;102060.25;5031767;28;99532;-81
2023/06/03 04:11:41;;;;;;;2.75;0.90;;;;;;;26.07;34.92;102060.06;5018841;28;96862;-81
2023/06/03 04:14:15;;;;;;;2.05;1.00;;;;;;;26.07;34.93;102059.22;5018243;28;96723;-81
2023/06/03 04:16:53;;;;;;;1.48;1.15;;;;;;;26.07;34.95;102060.06;5018023;28;99377;-81
2023/06/03 04:19:32;;;;;;;1.77;1.00;;;;;;;26.07;35.17;102064.72;5030590;28;99436;-82
2023/06/03 04:22:05;;;;;;;1.40;1.00;;;;;;;26.07;34.87;102067.47;5002547;28;96902;-82
2023/06/03 04:24:36;;;;;;;1.00;0.90;;;;;;;26.07;35.14;102061.97;5015265;28;97064;-82
2023/06/03 04:27:04;;;;;;;1.40;0.93;;;;;;;26.06;35.02;102066.59;5016472;28;97274;-81
2023/06/03 04:29:31;;;;;;;1.80;1.13;;;;;;;26.07;35.06;102067.47;5002862;28;100186;-82
2023/06/03 04:31:58;;;;;;;2.30;1.15;;;;;;;26.06;35.10;102052.00;5020755;28;96851;-82
2023/06/03 04:34:27;;;;;;;1.80;1.25;;;;;;;26.06;35.02;102063.84;5017573;28;97169;-81
2023/06/03 04:36:54;;;;;;;1.50;1.10;;;;;;;26.07;35.16;102061.97;5000083;28;99885;-81
2023/06/03 04:39:21;;;;;;;1.52;1.10;;;;;;;26.07;35.10;102057.31;5018030;28;96776;-81
2023/06/03 04:41:52;;;;;;;1.30;1.15;;;;;;;26.07;34.81;102057.31;5004089;28;97855;-81
2023/06/03 04:44:21;;;;;;;1.75;1.13;;;;;;;26.07;34.83;102060.06;5019247;28;96726;-81
2023/06/03 04:46:49;;;;;;;1.20;1.05;;;;;;;26.07;34.95;102061.97;5031880;28;99603;-81
2023/06/03 04:49:16;;;;;;;1.63;1.20;;;;;;;26.07;34.89;102057.31;5016863;28;98395;-81
2023/06/03 04:51:44;;;;;;;1.23;1.00;;;;;;;26.08;34.95;102060.91;4992582;28;96706;-81
2023/06/03 04:54:12;;;;;;;1.40;1.02;;;;;;;26.07;34.96;102067.47;5017470;28;96983;-82
2023/06/03 04:56:45;;;;;;;2.05;1.02;;;;;;;26.06;35.14;102063.00;5014744;28;98011;-81
2023/06/03 04:59:12;;;;;;;1.42;1.30;;;;;;;26.06;35.19;102061.09;5001862;28;99123;-81
2023/06/03 05:01:48;;;;;;;1.38;0.98;;;;;;;26.07;34.94;102061.97;5013677;28;96781;-81
2023/06/03 05:04:19;;;;;;;1.00;0.90;;;;;;;26.06;34.79;102069.38;5018270;28;97289;-81
2023/06/03 05:06:49;;;;;;;1.67;1.17;;;;;;;26.06;34.99;102060.25;4983905;28;97586;-81
2023/06/03 05:09:15;;;;;;;1.25;0.90;;;;;;;26.07;34.96;102064.72;4985076;28;100327;-81
2023/06/03 05:11:44;;;;;;;2.25;1.35;;;;;;;26.06;35.07;102066.59;5014731;28;98858;-81
2023/06/03 05:14:12;;;;;;;1.38;0.98;;;;;;;26.05;34.85;102064.91;5015987;28;96976;-82
2023/06/03 05:16:38;;;;;;;1.35;1.00;;;;;;;26.07;34.82;102064.72;5018570;28;97388;-82
2023/06/03 05:19:06;;;;;;;1.13;0.93;;;;;;;26.06;35.07;102069.38;4990658;28;99303;-82
2023/06/03 05:21:34;;;;;;;1.75;1.20;;;;;;;26.06;35.37;102069.38;5014450;28;97240;-82
2023/06/03 05:24:01;;;;;;;1.25;1.15;;;;;;;26.07;35.10;102072.97;5000433;28;97062;-82
2023/06/03 05:26:28;;;;;;;2.53;1.13;;;;;;;26.07;34.89;102071.06;5003465;28;96919;-81
2023/06/03 05:28:55;;;;;;;2.08;0.90;;;;;;;26.07;35.18;102075.72;5015841;28;98785;-81
2023/06/03 05:31:24;;;;;;;1.20;0.98;;;;;;;26.06;34.90;102069.38;5015991;28;96633;-82
2023/06/03 05:33:50;;;;;;;1.13;1.00;;;;;;;26.07;35.00;102073.81;4995028;28;97193;-82
2023/06/03 05:36:20;;;;;;;1.42;1.08;;;;;;;26.07;34.87;102072.97;4985503;28;100700;-82
2023/06/03 05:38:48;;;;;;;1.70;1.00;;;;;;;26.06;34.97;102072.13;5013949;28;99076;-81
2023/06/03 05:41:16;;;;;;;1.20;0.88;;;;;;;26.07;34.96;102068.31;5015768;28;96903;-81
2023/06/03 05:43:42;;;;;;;1.15;0.98;;;;;;;26.07;35.04;102072.97;5016108;28;96948;-82
2023/06/03 05:46:10;;;;;;;1.40;1.00;;;;;;;26.07;34.95;102067.47;5001671;28;96792;-81
2023/06/03 05:48:36;;;;;;;1.25;1.00;;;;;;;26.07;34.85;102067.47;5019595;28;96789;-82
2023/06/03 05:51:05;;;;;;;2.35;1.30;;;;;;;26.08;34.93;102069.19;5019587;28;97041;-81
2023/06/03 05:53:32;;;;;;;1.27;1.00;;;;;;;26.08;34.98;102071.94;5019239;28;96687;-81
2023/06/03 05:56:03;;;;;;;1.20;0.90;;;;;;;26.07;34.98;102071.06;5019205;28;97157;-82
2023/06/03 05:58:29;;;;;;;1.13;1.00;;;;;;;26.08;35.05;102066.44;5019662;28;98844;-82
2023/06/03 06:00:56;;;;;;;1.63;1.13;;;;;;;26.08;34.79;102069.19;5018457;28;96746;-81
2023/06/03 06:03:23;;;;;;;2.30;1.17;;;;;;;26.08;34.81;102070.03;5020560;28;97031;-82
2023/06/03 06:05:50;;;;;;;2.92;0.95;;;;;;;26.08;35.01;102067.28;5017197;28;99653;-82
2023/06/03 06:08:17;;;;;;;2.40;1.00;;;;;;;26.09;34.76;102065.38;5020411;28;99067;-82
2023/06/03 06:10:43;;;;;;;0.80;0.70;;;;;;;26.07;34.89;102070.22;5018883;28;96637;-82
2023/06/03 06:13:10;;;;;;;1.35;0.90;;;;;;;26.10;34.84;102069.84;5015988;28;96782;-82
2023/06/03 06:15:37;;;;;;;1.50;0.80;;;;;;;26.10;34.47;102064.34;5019475;28;98603;-82
2023/06/03 06:18:04;;;;;;;1.23;1.08;;;;;;;26.09;35.28;102071.75;5018084;28;99250;-83
2023/06/03 06:20:30;;;;;;;1.05;0.93;;;;;;;26.10;34.70;102067.09;5019352;28;96885;-81
2023/06/03 06:22:57;;;;;;;1.17;0.90;;;;;;;26.10;34.99;102078.97;5017451;28;96746;-82
2023/06/03 06:25:24;;;;;;;1.10;0.90;;;;;;;26.10;34.64;102072.59;5020864;28;97994;-82
2023/06/03 06:27:51;;;;;;;1.48;1.00;;;;;;;26.10;34.97;102081.72;5019269;28;99598;-82
2023/06/03 06:30:19;;;;;;;1.45;0.90;;;;;;;26.11;34.99;102077.06;5025777;28;97967;-83
2023/06/03 06:32:51;;;;;;;1.17;0.90;;;;;;;26.12;34.86;102084.31;5026602;28;98222;-82
2023/06/03 06:35:27;;;;;;;1.23;1.00;;;;;;;26.10;34.70;102080.88;5026104;28;99204;-81
2023/06/03 06:37:57;;;;;;;1.50;0.82;;;;;;;26.11;34.69;102083.44;5005286;28;99443;-82
2023/06/03 06:40:32;;;;;;;0.90;0.70;;;;;;;26.11;34.77;102083.44;5026210;28;97129;-82
2023/06/03 06:43:00;;;;;;;2.05;0.90;;;;;;;26.11;34.94;102086.19;5011743;28;97296;-82
2023/06/03 06:45:35;;;;;;;0.90;0.75;;;;;;;26.11;34.82;102088.09;5023117;28;100568;-82
2023/06/03 06:48:06;;;;;;;1.42;0.90;;;;;;;26.11;34.81;102088.09;5027548;28;98496;-81
2023/06/03 06:50:55;;;;;;;1.88;0.90;;;;;;;26.12;34.83;102087.06;5020880;28;96752;-81
2023/06/03 06:53:28;;;;;;;1.50;1.10;;;;;;;26.12;34.73;102084.31;5004964;28;96802;-82
2023/06/03 06:56:06;;;;;;;1.27;0.90;;;;;;;26.13;34.96;102091.53;5009652;28;97558;-82
2023/06/03 06:58:39;;;;;;;2.35;1.05;;;;;;;26.11;34.76;102080.69;5007993;28;96681;-81
2023/06/03 07:01:10;;;;;;;1.00;0.88;;;;;;;26.12;34.93;102090.66;5010118;28;96822;-82
2023/06/03 07:03:41;;;;;;;1.05;0.73;;;;;;;26.13;34.79;102086.00;5023051;28;98106;-82
2023/06/03 07:06:10;;;;;;;1.58;0.90;;;;;;;26.13;34.70;102084.13;5023787;28;97537;-82
2023/06/03 07:08:37;;;;;;;1.33;0.75;;;;;;;26.13;34.94;102086.88;5024997;28;100596;-82
2023/06/03 07:11:05;;;;;;;1.42;0.80;;;;;;;26.13;34.67;102083.25;5024606;28;96916;-82
2023/06/03 07:13:46;;;;;;;1.17;0.80;;;;;;;26.14;34.78;102087.72;5023335;28;96826;-81
2023/06/03 07:16:16;;;;;;;1.02;0.80;;;;;;;26.13;34.76;102081.38;5018482;28;99937;-82
2023/06/03 07:18:43;;;;;;;1.38;0.90;;;;;;;26.14;34.88;102082.22;5021070;28;100120;-82
2023/06/03 07:21:11;;;;;;;1.65;1.00;;;;;;;26.14;34.73;102077.56;5002864;28;96671;-83
2023/06/03 07:23:48;;;;;;;1.55;0.95;;;;;;;26.16;34.81;102083.75;5019193;28;97709;-82
2023/06/03 07:26:15;;;;;;;1.40;1.00;;;;;;;26.15;34.88;102086.69;5023278;28;99874;-81
2023/06/03 07:28:46;;;;;;;1.70;0.80;;;;;;;26.17;34.79;102084.63;5019388;28;100275;-81
2023/06/03 07:31:14;;;;;;;1.40;0.90;;;;;;;26.15;34.81;102075.69;5021944;28;97254;-81
2023/06/03 07:33:55;;;;;;;1.90;0.77;;;;;;;26.17;34.72;102081.84;5007857;28;96948;-82
2023/06/03 07:36:38;;;;;;;1.50;0.90;;;;;;;26.15;34.83;102075.69;5015358;28;96801;-82
2023/06/03 07:39:18;;;;;;;1.65;0.80;;;;;;;26.16;35.06;102081.00;5004723;28;101622;-82
2023/06/03 07:41:51;;;;;;;1.88;0.90;;;;;;;26.15;34.97;102089.44;5022815;28;97311;-81
2023/06/03 07:44:48;;;;;;;2.65;1.05;;;;;;;26.14;34.85;102083.06;5005043;28;97207;-81
2023/06/03 07:47:17;;;;;;;1.20;0.77;;;;;;;26.16;34.77;102085.66;5017894;28;96669;-82
2023/06/03 07:49:45;;;;;;;1.45;1.00;;;;;;;26.16;34.86;102085.66;5017118;28;96973;-82
2023/06/03 07:52:16;;;;;;;1.10;0.70;;;;;;;26.17;34.77;102088.22;5019588;28;97606;-81
2023/06/03 07:54:43;;;;;;;1.05;0.75;;;;;;;26.17;34.74;102079.97;5022993;28;97082;-82
2023/06/03 07:57:12;;;;;;;1.00;0.70;;;;;;;26.19;34.39;102088.03;5013366;28;98974;-81
2023/06/03 07:59:46;;;;;;;0.90;0.80;;;;;;;26.18;34.67;102089.94;5014143;28;96985;-81
2023/06/03 08:02:12;;;;;;;0.95;0.70;;;;;;;26.17;34.61;102084.63;5016757;28;97679;-81
2023/06/03 08:04:39;;;;;;;1.02;0.70;;;;;;;26.18;34.88;102089.94;5010918;28;96913;-81
2023/06/03 08:07:06;;;;;;;0.88;0.65;;;;;;;26.18;34.59;102080.81;5020882;28;97664;-83
2023/06/03 08:09:35;;;;;;;1.80;0.98;;;;;;;26.20;34.76;102092.50;4998648;28;98603;-82
2023/06/03 08:12:07;;;;;;;1.25;0.90;;;;;;;26.20;34.73;102090.63;5020329;28;96666;-83
2023/06/03 08:14:36;;;;;;;1.92;0.82;;;;;;;26.20;34.61;102089.75;5024767;28;96721;-83
2023/06/03 08:17:11;;;;;;;1.58;0.80;;;;;;;26.21;34.59;102088.72;5021325;28;97637;-81
2023/06/03 08:19:37;;;;;;;;;;;;;;;26.14;34.63;102083.06;5015523;28;99197;-82
2023/06/03 08:22:41;;;;;;;1.45;0.70;;;;;;;26.16;34.66;102086.50;5013337;28;97625;-82
2023/06/03 08:25:08;;;;;;;1.65;0.90;;;;;;;26.15;34.80;102087.53;5011500;28;97419;-82
2023/06/03 08:27:37;;;;;;;0.90;0.80;;;;;;;26.17;34.57;102093.72;5011617;28;99740;-81
2023/06/03 08:30:04;;;;;;;1.90;0.80;;;;;;;26.19;34.64;102088.03;5017108;28;99209;-82
2023/06/03 08:32:34;;;;;;;1.65;0.80;;;;;;;26.19;34.82;102088.91;5021719;28;96803;-81
2023/06/03 08:35:01;;;;;;;1.45;0.77;;;;;;;26.19;34.60;102083.38;5018863;28;96996;-81
2023/06/03 08:37:29;;;;;;;1.90;0.70;;;;;;;26.20;34.65;102090.63;5030458;28;99007;-81
2023/06/03 08:39:55;;;;;;;1.15;0.90;;;;;;;26.22;34.77;102087.69;5016229;28;97623;-81
2023/06/03 08:42:28;;;;;;;1.40;0.77;;;;;;;26.21;34.64;102080.47;5020183;28;96661;-81
2023/06/03 08:45:06;;;;;;;1.25;0.70;;;;;;;26.22;34.48;102084.94;5013806;28;97450;-81
2023/06/03 08:48:04;;;;;;;0.88;0.70;;;;;;;26.23;34.59;102082.00;5018841;28;96717;-82
2023/06/03 08:50:33;;;;;;;1.33;0.80;;;;;;;26.21;34.50;102077.69;5013633;28;97102;-81
2023/06/03 08:53:03;;;;;;;1.30;0.90;;;;;;;26.20;34.62;102079.59;5013820;28;97140;-81
2023/06/03 08:55:31;;;;;;;1.30;0.88;;;;;;;26.20;34.83;102071.34;5021781;28;97166;-81
2023/06/03 08:58:15;;;;;;;2.50;0.90;;;;;;;26.23;34.66;102072.88;5018760;28;98532;-81
2023/06/03 09:00:47;;;;;;;0.70;0.60;;;;;;;26.22;34.67;102071.16;5016516;28;97055;-82
2023/06/03 09:03:16;;;;;;;2.20;0.80;;;;;;;26.22;34.47;102077.53;5031278;28;97001;-82
2023/06/03 09:05:44;;;;;;;1.50;0.80;;;;;;;26.22;34.55;102074.75;5012365;28;96950;-82
2023/06/03 09:08:12;;;;;;;1.17;0.80;;;;;;;26.23;34.48;102082.00;5013175;28;98185;-82
2023/06/03 09:10:38;;;;;;;2.25;0.88;;;;;;;26.23;34.58;102070.13;5016820;28;97098;-82
2023/06/03 09:13:07;;;;;;;1.70;0.80;;;;;;;26.23;34.51;102068.22;5018794;28;97153;-82
2023/06/03 09:15:34;;;;;;;1.50;1.00;;;;;;;26.24;34.42;102071.81;5021036;28;96844;-82
2023/06/03 09:18:00;;;;;;;0.93;0.70;;;;;;;26.24;34.48;102075.44;5018858;28;97418;-80
2023/06/03 09:20:27;;;;;;;1.23;0.70;;;;;;;26.25;34.25;102070.78;5018587;28;100020;-81
2023/06/03 09:22:55;;;;;;;1.35;0.90;;;;;;;26.24;34.62;102067.19;5016113;28;96725;-82
2023/06/03 09:25:22;;;;;;;1.30;0.70;;;;;;;26.25;34.54;102062.53;5018258;28;97050;-81
2023/06/03 09:27:49;;;;;;;1.40;0.70;;;;;;;26.26;34.33;102072.50;5018350;28;96995;-82
2023/06/03 09:30:16;;;;;;;1.45;0.82;;;;;;;26.25;34.31;102071.66;5019023;28;98710;-82
2023/06/03 09:32:43;;;;;;;2.95;0.80;;;;;;;26.25;34.53;102076.31;5013523;28;96930;-81
2023/06/03 09:35:10;;;;;;;1.10;0.70;;;;;;;26.25;34.64;102063.38;5018641;28;96963;-81
2023/06/03 09:37:36;;;;;;;0.95;0.80;;;;;;;26.25;34.60;102057.88;5001699;28;99772;-80
2023/06/03 09:40:05;;;;;;;1.23;0.70;;;;;;;26.26;34.52;102059.59;5007719;28;98952;-81
2023/06/03 09:42:42;;;;;;;1.35;0.80;;;;;;;26.27;34.20;102061.31;5014525;28;97151;-82
2023/06/03 09:45:29;;;;;;;0.75;0.65;;;;;;;26.26;34.45;102065.09;5001838;28;96775;-81
2023/06/03 09:47:57;;;;;;;0.80;0.80;;;;;;;26.25;34.52;102062.53;5017365;28;99244;-83
2023/06/03 09:50:25;;;;;;;0.68;0.40;;;;;;;26.25;34.52;102057.03;5019197;28;98232;-82
2023/06/03 09:52:52;;;;;;;1.30;0.73;;;;;;;26.25;34.48;102062.53;5007696;28;96817;-81
2023/06/03 09:55:22;;;;;;;1.08;0.70;;;;;;;26.25;34.28;102063.38;5011372;28;97124;-81
2023/06/03 09:58:04;;;;;;;0.80;0.63;;;;;;;26.26;34.30;102065.09;5008419;28;98820;-81
2023/06/03 10:00:51;;;;;;;1.80;0.70;;;;;;;26.26;34.40;102070.59;4995302;28;98611;-81
2023/06/03 10:03:25;;;;;;;1.38;0.80;;;;;;;26.25;34.24;102071.66;5004570;28;96894;-81
2023/06/03 10:05:52;;;;;;;2.28;0.55;;;;;;;26.24;34.35;102072.69;5010931;28;96869;-82
2023/06/03 10:08:29;;;;;;;0.55;0.50;;;;;;;26.26;34.28;102075.25;4990590;28;99664;-82
2023/06/03 10:10:58;;;;;;;0.77;0.50;;;;;;;26.24;34.39;102069.94;5023920;28;96808;-82
2023/06/03 10:13:24;;;;;;;1.40;0.70;;;;;;;26.24;34.17;102067.19;5023071;28;96506;-82
2023/06/03 10:15:53;;;;;;;1.45;0.63;;;;;;;26.25;34.30;102068.03;5022697;28;96908;-82
2023/06/03 10:18:39;;;;;;;0.60;0.45;;;;;;;26.26;33.94;102075.25;5011714;28;97000;-81
2023/06/03 10:21:11;;;;;;;2.13;1.00;;;;;;;26.24;34.16;102072.69;5017868;28;100951;-81
2023/06/03 10:23:39;;;;;;;0.82;0.55;;;;;;;26.25;34.41;102068.91;5018734;28;98199;-81
2023/06/03 10:26:07;;;;;;;1.27;0.60;;;;;;;26.25;34.30;102059.78;5022491;28;98118;-81
2023/06/03 10:28:35;;;;;;;1.02;0.57;;;;;;;26.26;34.17;102078.00;5019364;28;96634;-81
2023/06/03 10:31:03;;;;;;;0.60;0.40;;;;;;;26.25;34.25;102068.91;5020870;28;97366;-81
2023/06/03 10:33:31;;;;;;;1.02;0.77;;;;;;;26.26;34.18;102067.00;5023778;28;96867;-80
2023/06/03 10:36:01;;;;;;;1.52;0.70;;;;;;;26.25;34.24;102060.63;5024165;28;96621;-82
2023/06/03 10:38:28;;;;;;;0.90;0.70;;;;;;;26.25;34.31;102055.13;5020556;28;98081;-80
2023/06/03 10:40:55;;;;;;;1.02;0.63;;;;;;;26.25;34.07;102060.63;4995857;28;97660;-81
2023/06/03 10:43:23;;;;;;;1.08;0.60;;;;;;;26.26;34.22;102069.75;5017937;28;96708;-81
2023/06/03 10:45:51;;;;;;;0.60;0.57;;;;;;;26.25;34.27;102060.63;5022920;28;96995;-82
2023/06/03 10:48:22;;;;;;;1.88;0.50;;;;;;;26.27;34.27;102071.47;5023252;28;97928;-81
2023/06/03 10:51:00;;;;;;;1.27;0.50;;;;;;;26.26;34.07;102061.50;5021089;28;97835;-81
2023/06/03 10:53:46;;;;;;;0.85;0.50;;;;;;;26.26;34.17;102072.50;5020501;28;96678;-81
2023/06/03 10:56:35;;;;;;;1.70;0.60;;;;;;;26.25;34.15;102054.28;5017793;28;97014;-82
2023/06/03 10:59:02;;;;;;;;;;;;;;;26.20;34.13;102054.81;4997656;28;101002;-82
2023/06/03 11:02:05;;;;;;;1.27;0.68;;;;;;;26.21;33.97;102055.66;5018895;28;97144;-82
2023/06/03 11:04:36;;;;;;;1.55;0.70;;;;;;;26.21;34.19;102052.91;4961156;28;97131;-82
2023/06/03 11:07:05;;;;;;;1.45;0.60;;;;;;;26.22;34.13;102055.50;5011769;28;96819;-83
2023/06/03 11:09:34;;;;;;;0.82;0.50;;;;;;;26.22;33.95;102062.91;5006663;28;99296;-81
2023/06/03 11:12:14;;;;;;;0.60;0.50;;;;;;;26.21;33.93;102053.78;5012122;28;98944;-83
2023/06/03 11:14:48;;;;;;;0.88;0.70;;;;;;;26.23;34.08;102051.69;5021551;28;96649;-82
2023/06/03 11:17:18;;;;;;;0.95;0.70;;;;;;;26.23;34.01;102048.09;5018914;28;98712;-82
2023/06/03 11:19:45;;;;;;;0.80;0.50;;;;;;;26.23;33.97;102050.84;5021563;28;96850;-82
2023/06/03 11:22:13;;;;;;;0.90;0.60;;;;;;;26.23;33.96;102056.34;5003243;28;98446;-83
2023/06/03 11:24:40;;;;;;;1.02;0.65;;;;;;;26.24;34.07;102067.19;5023542;28;96794;-82
2023/06/03 11:27:09;;;;;;;0.50;0.50;;;;;;;26.25;34.06;102065.28;5006157;28;97048;-82
2023/06/03 11:29:51;;;;;;;0.90;0.43;;;;;;;26.26;33.99;102058.72;5024548;28;96558;-82
2023/06/03 11:32:27;;;;;;;0.82;0.40;;;;;;;26.25;34.23;102059.78;5020296;28;96667;-82
2023/06/03 11:35:03;;;;;;;0.70;0.50;;;;;;;26.24;34.02;102060.81;5019882;28;96821;-83
2023/06/03 11:37:40;;;;;;;1.17;0.55;;;;;;;26.24;33.89;102061.66;5018912;28;97680;-83